Coodys Bluff, Oklahoma
Current Conditions -  °F | °C
As of 2:53 PM on Monday 24 Nov 2014 (Local Time) from KBVO Reporting Station
Clear Clear  
Wind Chill: 54°   Ceiling: Unl
Heat Index: 54°   Visibility: 10mi
Dew Point: 24°   Wind: 13mph
Humidity: 31%   Direction: 280°W
Pressure: 29.93"   Gusts: 22mph
Location:  36.6745°N, 95.6917°W
Report Text: KBVO 242053Z AUTO 28011G19KT 10SM CLR 12/M04 A2993 RMK AO2 SLP133 T01221044 53006
Loading
Personal Weather Stations






























Interactive Weather Map New forecast layout! Learn more

10-Day Weather Forecast

Advertisements
Track Severe Weather on mobile